Portada
METAR-TAF:

METAR-TAF

Aeropuertos :

Isbell Field

Fort Payne, Alabama, Estados Unidos

latitud: 34-28-25N, longitud: 085-43-17W, altitud: 267 m

Observación

El informe se hizo hace 22 minutos, a las 18:55 UTC
Viento 7 kt del noroeste, variando entre oeste y norte-noroeste
Temperatura 10°C
Humedad 82%
Presión 1014 hPa
Visibilidad: 16.1 km
Nubes dispersas a una altura de 1600 ft
Nubes dispersas a una altura de 2100 ft
Cielo cubierto a una altura de 2700 ft

METAR: K4A9 271855Z AUTO 31007KT 270V330 10SM SCT016 SCT021 OVC027 10/07 A2993 RMK AO2 T00960065

Hora: 13:17 (19:17 UTC)


TAF: falta

Observaciones y pronósticos meteorológicos de más de 4000 aeropuertos (mensajes METAR y TAF).

Los puntos amarillos y rojos representan las estaciones disponibles.

Ponga el ratón en el punto deseado para ver el nombre de la estación.

Haga clic para ver las observaciones y los pronósticos meteorológicos.

Para cambiar el mapa : haga clic en los botones verdes con una cruz de color negro para hacer un zoom, en el botón verde con un guión para alejar o en las flechas verdes para mapas adyacentes.


METAR-TAF: